Time;durP1;ratioP1;P1;durP2;ratioP2;P2;SDS_P1;SDS_P2;PMS_P1;PMS_P2;Temp;Humidity;BMP_temperature;BMP_pressure;BME280_temperature;BME280_humidity;BME280_pressure;Samples;Min_cycle;Max_cycle;Signal;HPM_P1;HPM_P2
2022/11/26 00:00:18;;;;;;;1.00;0.70;;;;;;;;;;1726363;82;21542;-56
2022/11/26 00:02:44;;;;;;;2.33;1.10;;;;;;;;;;1724405;82;21585;-56
2022/11/26 00:05:14;;;;;;;2.57;1.17;;;;;;;;;;1713493;82;21835;-56
2022/11/26 00:07:41;;;;;;;1.00;0.70;;;;;;;;;;1739104;81;21457;-56
2022/11/26 00:10:17;;;;;;;1.93;1.00;;;;;;;;;;1708757;82;21049;-56
2022/11/26 00:17:33;;;;;;;1.00;0.70;;;;;;;;;;1676862;84;21533;-55
2022/11/26 00:19:59;;;;;;;1.10;0.80;;;;;;;;;;1708498;82;21888;-54
2022/11/26 00:22:29;;;;;;;1.60;0.80;;;;;;;;;;1712616;82;21259;-53
2022/11/26 00:24:55;;;;;;;0.93;0.80;;;;;;;;;;1705592;82;21048;-54
2022/11/26 00:27:24;;;;;;;0.93;0.70;;;;;;;;;;1704915;82;21528;-54
2022/11/26 00:29:51;;;;;;;1.17;0.70;;;;;;;;;;1700974;82;21355;-56
2022/11/26 00:32:19;;;;;;;1.20;0.83;;;;;;;;;;1704582;82;21378;-56
2022/11/26 00:34:47;;;;;;;1.37;0.70;;;;;;;;;;1708568;82;21123;-54
2022/11/26 00:37:22;;;;;;;1.13;0.70;;;;;;;;;;1701782;82;21081;-55
2022/11/26 00:39:48;;;;;;;;;;;;;;;;;;1674523;84;21112;-55
2022/11/26 00:42:14;;;;;;;0.80;0.60;;;;;;;;;;1641950;85;22212;-56
2022/11/26 00:44:40;;;;;;;0.90;0.60;;;;;;;;;;1705344;82;21929;-54
2022/11/26 00:47:08;;;;;;;1.43;0.60;;;;;;;;;;1703663;82;21077;-55
2022/11/26 00:49:34;;;;;;;2.90;1.50;;;;;;;;;;1672933;84;21069;-55
2022/11/26 00:52:00;;;;;;;1.87;1.43;;;;;;;;;;1705733;82;21457;-54
2022/11/26 00:54:26;;;;;;;1.03;0.60;;;;;;;;;;1705961;82;21139;-54
2022/11/26 00:56:53;;;;;;;0.80;0.50;;;;;;;;;;1702107;82;22356;-54
2022/11/26 00:59:20;;;;;;;2.17;0.57;;;;;;;;;;1702434;82;21070;-54
2022/11/26 01:01:47;;;;;;;1.63;0.60;;;;;;;;;;1709151;82;21068;-55
2022/11/26 01:04:13;;;;;;;0.90;0.80;;;;;;;;;;1701606;82;21265;-55
2022/11/26 01:06:40;;;;;;;2.10;0.70;;;;;;;;;;1702292;82;21052;-54
2022/11/26 01:09:09;;;;;;;1.80;0.80;;;;;;;;;;1704821;82;21852;-55
2022/11/26 01:11:35;;;;;;;1.77;1.00;;;;;;;;;;1705283;82;21124;-54
2022/11/26 01:14:04;;;;;;;0.93;0.80;;;;;;;;;;1707017;82;21320;-54
2022/11/26 01:16:35;;;;;;;0.80;0.57;;;;;;;;;;1745596;80;21155;-55
2022/11/26 01:19:01;;;;;;;0.50;0.40;;;;;;;;;;1750310;80;21047;-54
2022/11/26 01:21:29;;;;;;;0.80;0.60;;;;;;;;;;1742115;80;21776;-52
2022/11/26 01:23:56;;;;;;;1.07;0.73;;;;;;;;;;1746795;80;21279;-54
2022/11/26 01:26:25;;;;;;;0.70;0.50;;;;;;;;;;1744637;80;21310;-54
2022/11/26 01:28:51;;;;;;;0.87;0.50;;;;;;;;;;1736510;80;21119;-54
2022/11/26 01:31:20;;;;;;;1.30;0.80;;;;;;;;;;1736231;80;21046;-55
2022/11/26 01:33:47;;;;;;;0.90;0.50;;;;;;;;;;1734662;80;21116;-57
2022/11/26 01:36:27;;;;;;;0.70;0.40;;;;;;;;;;1750215;80;21028;-55
2022/11/26 01:38:55;;;;;;;0.90;0.57;;;;;;;;;;1731458;80;21094;-55
2022/11/26 01:41:37;;;;;;;1.10;0.60;;;;;;;;;;1749277;80;21195;-55
2022/11/26 01:44:03;;;;;;;1.00;0.70;;;;;;;;;;1732239;80;21036;-56
2022/11/26 01:46:30;;;;;;;1.00;0.60;;;;;;;;;;1731747;80;21922;-54
2022/11/26 01:49:16;;;;;;;2.67;1.20;;;;;;;;;;1739208;80;21136;-55
2022/11/26 01:51:43;;;;;;;1.47;0.77;;;;;;;;;;1750633;80;21607;-55
2022/11/26 01:54:09;;;;;;;2.30;0.80;;;;;;;;;;1732632;80;21057;-55
2022/11/26 01:56:42;;;;;;;2.63;1.70;;;;;;;;;;1708635;80;21485;-55
2022/11/26 01:59:27;;;;;;;2.23;0.80;;;;;;;;;;1734535;80;21903;-56
2022/11/26 02:01:53;;;;;;;;;;;;;;;;;;1753386;80;22047;-55
2022/11/26 02:04:22;;;;;;;2.07;0.77;;;;;;;;;;1745623;80;20211;-55
2022/11/26 02:06:49;;;;;;;0.70;0.50;;;;;;;;;;1733658;80;21047;-55
2022/11/26 02:09:15;;;;;;;2.17;1.03;;;;;;;;;;1737726;80;21457;-56
2022/11/26 02:11:42;;;;;;;4.70;1.50;;;;;;;;;;1733364;80;21873;-56
2022/11/26 02:14:15;;;;;;;1.73;0.80;;;;;;;;;;1746590;80;21024;-55
2022/11/26 02:16:54;;;;;;;3.93;1.20;;;;;;;;;;1743117;80;21572;-56
2022/11/26 02:19:33;;;;;;;1.03;0.70;;;;;;;;;;1710741;81;21533;-55
2022/11/26 02:22:12;;;;;;;0.60;0.43;;;;;;;;;;1710061;81;21545;-55
2022/11/26 02:24:50;;;;;;;1.33;0.60;;;;;;;;;;1724309;81;22578;-55
2022/11/26 02:27:43;;;;;;;0.90;0.60;;;;;;;;;;1733529;80;21024;-55
2022/11/26 02:30:11;;;;;;;0.60;0.60;;;;;;;;;;1727916;81;21084;-55
2022/11/26 02:33:00;;;;;;;0.50;0.40;;;;;;;;;;1716411;81;21052;-56
2022/11/26 02:35:44;;;;;;;0.70;0.40;;;;;;;;;;1724402;81;21095;-56
2022/11/26 02:38:16;;;;;;;1.33;0.50;;;;;;;;;;1731360;81;21828;-55
2022/11/26 02:40:42;;;;;;;0.60;0.40;;;;;;;;;;1735892;81;21105;-55
2022/11/26 02:43:08;;;;;;;1.10;0.60;;;;;;;;;;1732465;81;21072;-56
2022/11/26 02:45:36;;;;;;;0.80;0.53;;;;;;;;;;1730777;80;21668;-55
2022/11/26 02:48:05;;;;;;;1.20;0.40;;;;;;;;;;1727697;81;21017;-56
2022/11/26 02:50:38;;;;;;;1.07;0.50;;;;;;;;;;1731678;81;22821;-55
2022/11/26 02:53:06;;;;;;;0.50;0.40;;;;;;;;;;1731334;81;21049;-55
2022/11/26 02:55:34;;;;;;;0.40;0.30;;;;;;;;;;1729110;81;21541;-54
2022/11/26 02:58:01;;;;;;;0.70;0.40;;;;;;;;;;1728365;81;21577;-54
2022/11/26 03:00:27;;;;;;;0.60;0.43;;;;;;;;;;1729008;80;21550;-56
2022/11/26 03:03:21;;;;;;;0.40;0.30;;;;;;;;;;1732552;81;21925;-54
2022/11/26 03:05:41;;;;;;;0.53;0.40;;;;;;;;;;1726920;81;21076;-55
2022/11/26 03:08:07;;;;;;;1.80;0.50;;;;;;;;;;1729039;80;21104;-56
2022/11/26 03:10:33;;;;;;;0.60;0.40;;;;;;;;;;1713498;81;21080;-56
2022/11/26 03:12:59;;;;;;;0.50;0.40;;;;;;;;;;1728481;80;21032;-55
2022/11/26 03:15:26;;;;;;;2.73;0.80;;;;;;;;;;1725156;81;22491;-55
2022/11/26 03:17:52;;;;;;;0.77;0.40;;;;;;;;;;1746487;80;21860;-55
2022/11/26 03:20:18;;;;;;;0.60;0.37;;;;;;;;;;1750515;80;21024;-55
2022/11/26 03:22:44;;;;;;;0.37;0.27;;;;;;;;;;1748595;80;21033;-55
2022/11/26 03:25:11;;;;;;;0.40;0.20;;;;;;;;;;1749496;80;21160;-55
2022/11/26 03:27:37;;;;;;;0.90;0.30;;;;;;;;;;1747339;80;21286;-55
2022/11/26 03:30:04;;;;;;;0.30;0.20;;;;;;;;;;1732037;80;21501;-55
2022/11/26 03:32:31;;;;;;;0.30;0.20;;;;;;;;;;1730937;80;20993;-56
2022/11/26 03:34:59;;;;;;;0.30;0.20;;;;;;;;;;1746960;80;21513;-55
2022/11/26 03:37:25;;;;;;;0.20;0.20;;;;;;;;;;1741443;80;21505;-56
2022/11/26 03:39:51;;;;;;;0.40;0.20;;;;;;;;;;1730699;80;23153;-56
2022/11/26 03:42:17;;;;;;;0.40;0.20;;;;;;;;;;1747493;80;21611;-56
2022/11/26 03:44:43;;;;;;;0.30;0.20;;;;;;;;;;1752320;80;21005;-55
2022/11/26 03:47:10;;;;;;;0.20;0.10;;;;;;;;;;1746301;80;21036;-54
2022/11/26 03:49:36;;;;;;;0.40;0.30;;;;;;;;;;1730402;80;21317;-55
2022/11/26 03:52:03;;;;;;;0.20;0.10;;;;;;;;;;1737456;80;21998;-54
2022/11/26 03:54:29;;;;;;;0.37;0.20;;;;;;;;;;1747734;80;21059;-55
2022/11/26 03:56:56;;;;;;;0.20;0.20;;;;;;;;;;1736536;80;21033;-55
2022/11/26 03:59:23;;;;;;;0.30;0.20;;;;;;;;;;1731265;80;21022;-56
2022/11/26 04:01:49;;;;;;;0.30;0.20;;;;;;;;;;1728595;80;21517;-55
2022/11/26 04:04:15;;;;;;;0.40;0.30;;;;;;;;;;1734326;80;21810;-57
2022/11/26 04:06:41;;;;;;;0.30;0.20;;;;;;;;;;1748856;80;21035;-54
2022/11/26 04:09:08;;;;;;;0.20;0.10;;;;;;;;;;1745375;80;21378;-54
2022/11/26 04:11:35;;;;;;;0.30;0.20;;;;;;;;;;1743909;80;21031;-55
2022/11/26 04:14:01;;;;;;;0.20;0.20;;;;;;;;;;1745416;80;21023;-55
2022/11/26 04:16:27;;;;;;;0.23;0.20;;;;;;;;;;1745425;80;21840;-56
2022/11/26 04:18:53;;;;;;;0.27;0.20;;;;;;;;;;1729335;81;21475;-54
2022/11/26 04:21:19;;;;;;;0.20;0.20;;;;;;;;;;1727337;80;21639;-55
2022/11/26 04:23:46;;;;;;;0.20;0.13;;;;;;;;;;1729548;80;21106;-54
2022/11/26 04:26:12;;;;;;;0.37;0.20;;;;;;;;;;1730251;80;21009;-54
2022/11/26 04:28:39;;;;;;;0.20;0.10;;;;;;;;;;1728860;80;22498;-57
2022/11/26 04:31:05;;;;;;;0.30;0.20;;;;;;;;;;1729746;81;21679;-54
2022/11/26 04:33:31;;;;;;;0.20;0.20;;;;;;;;;;1731730;81;21057;-55
2022/11/26 04:35:57;;;;;;;0.20;0.20;;;;;;;;;;1731968;81;21521;-56
2022/11/26 04:38:23;;;;;;;1.70;0.20;;;;;;;;;;1724010;81;21036;-57
2022/11/26 04:40:49;;;;;;;0.20;0.20;;;;;;;;;;1731191;80;21742;-56
2022/11/26 04:43:17;;;;;;;0.27;0.20;;;;;;;;;;1734270;81;21083;-54
2022/11/26 04:45:43;;;;;;;0.30;0.20;;;;;;;;;;1732640;81;21177;-54
2022/11/26 04:48:09;;;;;;;0.17;0.13;;;;;;;;;;1730076;81;21566;-55
2022/11/26 04:50:35;;;;;;;0.30;0.20;;;;;;;;;;1732387;80;21510;-55
2022/11/26 04:53:02;;;;;;;0.90;0.30;;;;;;;;;;1726644;81;21833;-54
2022/11/26 04:55:28;;;;;;;0.60;0.20;;;;;;;;;;1728340;80;21501;-55
2022/11/26 04:57:54;;;;;;;0.30;0.17;;;;;;;;;;1733068;81;21025;-55
2022/11/26 05:00:21;;;;;;;0.20;0.20;;;;;;;;;;1732336;80;21119;-56
2022/11/26 05:02:47;;;;;;;0.43;0.23;;;;;;;;;;1733671;81;21032;-56
2022/11/26 05:05:14;;;;;;;0.30;0.27;;;;;;;;;;1726740;81;21988;-55
2022/11/26 05:07:41;;;;;;;0.30;0.20;;;;;;;;;;1732947;80;21609;-54
2022/11/26 05:10:09;;;;;;;0.20;0.10;;;;;;;;;;1729214;81;21040;-54
2022/11/26 05:12:36;;;;;;;0.20;0.20;;;;;;;;;;1724939;81;21522;-54
2022/11/26 05:15:03;;;;;;;0.20;0.13;;;;;;;;;;1731034;80;21085;-57
2022/11/26 05:17:30;;;;;;;0.20;0.10;;;;;;;;;;1733050;80;21962;-55
2022/11/26 05:19:58;;;;;;;0.27;0.13;;;;;;;;;;1728012;81;21613;-54
2022/11/26 05:22:24;;;;;;;0.20;0.20;;;;;;;;;;1730519;80;21028;-57
2022/11/26 05:24:50;;;;;;;0.50;0.20;;;;;;;;;;1728979;81;21585;-55
2022/11/26 05:27:16;;;;;;;0.20;0.10;;;;;;;;;;1730144;81;21586;-56
2022/11/26 05:29:43;;;;;;;0.27;0.10;;;;;;;;;;1732241;81;21946;-55
2022/11/26 05:32:09;;;;;;;0.17;0.10;;;;;;;;;;1731175;80;21060;-54
2022/11/26 05:34:35;;;;;;;0.20;0.20;;;;;;;;;;1727375;80;21499;-54
2022/11/26 05:37:01;;;;;;;0.20;0.20;;;;;;;;;;1736415;81;21041;-54
2022/11/26 05:39:27;;;;;;;0.37;0.20;;;;;;;;;;1729450;80;21079;-54
2022/11/26 05:41:54;;;;;;;0.43;0.13;;;;;;;;;;1732496;80;21814;-57
2022/11/26 05:44:20;;;;;;;0.10;0.10;;;;;;;;;;1735623;80;21045;-56
2022/11/26 05:49:31;;;;;;;0.27;0.20;;;;;;;;;;1777620;78;27510;-55
2022/11/26 05:51:57;;;;;;;0.20;0.20;;;;;;;;;;1741143;80;22652;-56
2022/11/26 05:54:23;;;;;;;0.30;0.13;;;;;;;;;;1743500;80;21837;-58
2022/11/26 05:56:49;;;;;;;0.50;0.20;;;;;;;;;;1746406;80;21379;-58
2022/11/26 05:59:15;;;;;;;0.27;0.20;;;;;;;;;;1747610;80;21033;-54
2022/11/26 06:01:42;;;;;;;0.50;0.20;;;;;;;;;;1737724;80;21100;-54
2022/11/26 06:04:08;;;;;;;0.30;0.20;;;;;;;;;;1744637;80;21057;-56
2022/11/26 06:06:34;;;;;;;0.87;0.20;;;;;;;;;;1752263;80;21838;-54
2022/11/26 06:09:01;;;;;;;0.23;0.10;;;;;;;;;;1744738;80;21101;-53
2022/11/26 06:11:28;;;;;;;0.30;0.20;;;;;;;;;;1750731;80;21065;-54
2022/11/26 06:13:54;;;;;;;1.17;0.30;;;;;;;;;;1752851;80;21522;-53
2022/11/26 06:16:20;;;;;;;0.20;0.20;;;;;;;;;;1719532;81;21090;-54
2022/11/26 06:18:46;;;;;;;0.50;0.20;;;;;;;;;;1724870;81;22389;-53
2022/11/26 06:21:12;;;;;;;0.23;0.20;;;;;;;;;;1722100;81;21663;-55
2022/11/26 06:23:39;;;;;;;0.40;0.40;;;;;;;;;;1717073;81;21127;-54
2022/11/26 06:26:09;;;;;;;0.30;0.30;;;;;;;;;;1710884;81;21080;-53
2022/11/26 06:28:36;;;;;;;0.30;0.27;;;;;;;;;;1709642;81;21104;-55
2022/11/26 06:31:02;;;;;;;0.50;0.30;;;;;;;;;;1719258;81;21992;-57
2022/11/26 06:33:28;;;;;;;0.40;0.30;;;;;;;;;;1719601;81;21054;-55
2022/11/26 06:35:59;;;;;;;0.40;0.40;;;;;;;;;;1719326;81;21446;-54
2022/11/26 06:38:25;;;;;;;0.40;0.30;;;;;;;;;;1717658;81;21091;-52
2022/11/26 06:41:02;;;;;;;0.30;0.30;;;;;;;;;;1720911;81;21152;-53
2022/11/26 06:43:29;;;;;;;0.40;0.37;;;;;;;;;;1723100;81;21663;-55
2022/11/26 06:46:03;;;;;;;0.80;0.33;;;;;;;;;;1717613;81;21030;-53
2022/11/26 06:48:29;;;;;;;0.40;0.40;;;;;;;;;;1715412;81;21058;-54
2022/11/26 06:50:56;;;;;;;0.60;0.40;;;;;;;;;;1706347;82;21105;-53
2022/11/26 06:53:23;;;;;;;0.67;0.40;;;;;;;;;;1706923;82;21084;-54
2022/11/26 06:55:49;;;;;;;0.47;0.33;;;;;;;;;;1706408;82;23327;-53
2022/11/26 06:58:15;;;;;;;1.10;0.50;;;;;;;;;;1710123;82;21519;-53
2022/11/26 07:00:41;;;;;;;1.37;0.60;;;;;;;;;;1707013;82;21099;-53
2022/11/26 07:03:08;;;;;;;1.40;0.90;;;;;;;;;;1702398;82;21069;-53
2022/11/26 07:05:36;;;;;;;4.30;1.90;;;;;;;;;;1704461;82;21080;-53
2022/11/26 07:08:03;;;;;;;15.03;10.83;;;;;;;;;;1703687;82;21826;-54
2022/11/26 07:10:29;;;;;;;67.27;34.60;;;;;;;;;;1709898;82;21564;-55
2022/11/26 07:12:57;;;;;;;125.10;59.70;;;;;;;;;;1708593;82;21116;-53
2022/11/26 07:15:23;;;;;;;59.07;27.00;;;;;;;;;;1705271;82;21055;-54
2022/11/26 07:17:49;;;;;;;9.33;3.63;;;;;;;;;;1707778;82;21033;-55
2022/11/26 07:20:16;;;;;;;48.03;31.60;;;;;;;;;;1706545;82;21404;-55
2022/11/26 07:22:42;;;;;;;65.77;45.77;;;;;;;;;;1706438;82;21042;-53
2022/11/26 07:25:08;;;;;;;102.10;58.37;;;;;;;;;;1704573;82;21099;-54
2022/11/26 07:27:34;;;;;;;198.43;103.30;;;;;;;;;;1708989;82;21495;-53
2022/11/26 07:30:00;;;;;;;74.23;34.80;;;;;;;;;;1703461;82;21065;-53
2022/11/26 07:32:28;;;;;;;31.87;12.43;;;;;;;;;;1703282;81;21804;-56
2022/11/26 07:34:55;;;;;;;332.40;149.77;;;;;;;;;;1706027;82;21700;-53
2022/11/26 07:37:21;;;;;;;133.87;61.90;;;;;;;;;;1705908;82;21070;-55
2022/11/26 07:39:47;;;;;;;129.90;60.37;;;;;;;;;;1708157;82;21057;-54
2022/11/26 07:42:13;;;;;;;162.93;84.47;;;;;;;;;;1705969;82;21087;-55
2022/11/26 07:44:40;;;;;;;97.77;54.97;;;;;;;;;;1703472;82;21829;-54
2022/11/26 07:47:07;;;;;;;56.37;38.23;;;;;;;;;;1706058;82;21535;-54
2022/11/26 07:49:33;;;;;;;119.17;72.43;;;;;;;;;;1705778;81;21216;-55
2022/11/26 07:51:59;;;;;;;66.60;37.67;;;;;;;;;;1707101;82;21546;-55
2022/11/26 07:54:25;;;;;;;74.37;45.37;;;;;;;;;;1706280;82;21041;-54
2022/11/26 07:56:51;;;;;;;55.27;35.47;;;;;;;;;;1708082;82;21840;-54
2022/11/26 07:59:18;;;;;;;32.70;23.70;;;;;;;;;;1704717;82;21569;-53
2022/11/26 08:01:44;;;;;;;11.27;9.57;;;;;;;;;;1709525;82;21513;-53
2022/11/26 08:04:10;;;;;;;8.40;7.53;;;;;;;;;;1705516;82;21068;-54
2022/11/26 08:06:37;;;;;;;24.77;22.23;;;;;;;;;;1709730;82;21511;-53
2022/11/26 08:09:04;;;;;;;18.17;16.37;;;;;;;;;;1707130;82;21346;-56
2022/11/26 08:11:32;;;;;;;3.43;2.13;;;;;;;;;;1706952;82;21213;-55
2022/11/26 08:14:00;;;;;;;3.67;3.03;;;;;;;;;;1709501;82;21054;-56
2022/11/26 08:16:26;;;;;;;2.17;1.20;;;;;;;;;;1712014;82;21057;-56
2022/11/26 08:18:58;;;;;;;1.00;0.90;;;;;;;;;;1706975;82;21057;-52
2022/11/26 08:21:24;;;;;;;1.13;1.00;;;;;;;;;;1704959;82;21818;-56
2022/11/26 08:23:52;;;;;;;2.10;0.90;;;;;;;;;;1704941;82;22279;-56
2022/11/26 08:26:19;;;;;;;1.00;0.83;;;;;;;;;;1709269;82;21057;-55
2022/11/26 08:28:46;;;;;;;1.03;0.77;;;;;;;;;;1710610;82;21061;-54
2022/11/26 08:31:14;;;;;;;1.63;0.90;;;;;;;;;;1708016;82;21073;-56
2022/11/26 08:33:40;;;;;;;1.20;0.70;;;;;;;;;;1707581;82;21951;-54
2022/11/26 08:36:07;;;;;;;4.30;3.93;;;;;;;;;;1706731;82;21531;-54
2022/11/26 08:38:33;;;;;;;36.33;33.17;;;;;;;;;;1706776;82;21556;-54
2022/11/26 08:41:00;;;;;;;2.27;2.07;;;;;;;;;;1708605;82;21034;-54
2022/11/26 08:43:27;;;;;;;1.40;0.90;;;;;;;;;;1706307;82;21411;-56
2022/11/26 08:45:54;;;;;;;0.87;0.67;;;;;;;;;;1701519;82;21839;-55
2022/11/26 08:48:20;;;;;;;0.80;0.70;;;;;;;;;;1708632;82;21101;-53
2022/11/26 08:50:46;;;;;;;0.80;0.70;;;;;;;;;;1708828;82;21463;-54
2022/11/26 08:53:13;;;;;;;0.70;0.60;;;;;;;;;;1710632;82;21081;-54
2022/11/26 08:55:39;;;;;;;1.13;0.93;;;;;;;;;;1703678;82;21061;-54
2022/11/26 08:58:05;;;;;;;1.33;0.90;;;;;;;;;;1707138;82;21710;-56
2022/11/26 09:00:32;;;;;;;1.53;1.33;;;;;;;;;;1715443;82;21152;-54
2022/11/26 09:02:58;;;;;;;0.90;0.63;;;;;;;;;;1705585;82;21128;-54
2022/11/26 09:05:25;;;;;;;0.93;0.80;;;;;;;;;;1698057;83;21112;-54
2022/11/26 09:07:51;;;;;;;1.47;1.20;;;;;;;;;;1708875;82;21240;-54
2022/11/26 09:10:18;;;;;;;9.03;6.80;;;;;;;;;;1676301;82;22521;-55
2022/11/26 09:12:44;;;;;;;22.10;16.60;;;;;;;;;;1704841;82;21073;-54
2022/11/26 09:15:10;;;;;;;85.33;53.63;;;;;;;;;;1708039;82;21054;-53
2022/11/26 09:17:37;;;;;;;130.90;71.70;;;;;;;;;;1704180;82;21267;-54
2022/11/26 09:20:04;;;;;;;172.87;91.10;;;;;;;;;;1708362;82;21045;-54
2022/11/26 09:22:30;;;;;;;142.40;70.63;;;;;;;;;;1710105;82;21785;-55
2022/11/26 09:24:56;;;;;;;51.43;21.13;;;;;;;;;;1704767;82;22556;-55
2022/11/26 09:27:23;;;;;;;137.43;60.60;;;;;;;;;;1703034;82;21116;-54
2022/11/26 09:29:49;;;;;;;166.07;70.00;;;;;;;;;;1710263;82;21045;-54
2022/11/26 09:32:15;;;;;;;118.00;50.20;;;;;;;;;;1706628;82;21623;-54
2022/11/26 09:34:41;;;;;;;148.93;57.23;;;;;;;;;;1707027;82;22744;-54
2022/11/26 09:37:07;;;;;;;285.57;106.47;;;;;;;;;;1693512;82;21562;-53
2022/11/26 09:39:34;;;;;;;163.67;56.80;;;;;;;;;;1705434;82;21116;-55
2022/11/26 09:42:09;;;;;;;288.70;102.43;;;;;;;;;;1707470;82;21050;-56
2022/11/26 09:44:54;;;;;;;265.00;93.33;;;;;;;;;;1706797;82;21082;-54
2022/11/26 09:47:25;;;;;;;144.85;51.58;;;;;;;;;;1706840;82;21929;-56
2022/11/26 09:49:55;;;;;;;173.87;66.23;;;;;;;;;;1704488;82;21602;-55
2022/11/26 09:52:23;;;;;;;105.53;40.90;;;;;;;;;;1706979;82;21089;-55
2022/11/26 09:54:51;;;;;;;86.13;38.33;;;;;;;;;;1707292;82;21065;-55
2022/11/26 09:57:24;;;;;;;112.33;61.47;;;;;;;;;;1703930;82;21547;-57
2022/11/26 09:59:50;;;;;;;154.70;78.27;;;;;;;;;;1706869;82;22580;-56
2022/11/26 10:02:17;;;;;;;99.20;48.30;;;;;;;;;;1707232;82;21180;-57
2022/11/26 10:04:43;;;;;;;61.93;30.60;;;;;;;;;;1706741;82;20973;-56
2022/11/26 10:07:21;;;;;;;67.07;32.40;;;;;;;;;;1694474;82;21049;-54
2022/11/26 10:09:51;;;;;;;165.47;75.03;;;;;;;;;;1705683;82;21568;-56
2022/11/26 10:12:51;;;;;;;151.07;70.43;;;;;;;;;;1707684;82;21837;-55
2022/11/26 10:15:21;;;;;;;111.73;54.03;;;;;;;;;;1709857;82;21060;-55
2022/11/26 10:18:11;;;;;;;58.63;30.27;;;;;;;;;;1707480;82;21309;-55
2022/11/26 10:21:04;;;;;;;54.80;27.60;;;;;;;;;;1707280;82;21570;-54
2022/11/26 10:23:37;;;;;;;89.57;54.03;;;;;;;;;;1660758;82;21102;-56
2022/11/26 10:26:09;;;;;;;71.63;41.27;;;;;;;;;;1711100;82;22015;-54
2022/11/26 10:28:38;;;;;;;66.53;39.90;;;;;;;;;;1706886;82;21070;-54
2022/11/26 10:31:18;;;;;;;30.80;20.13;;;;;;;;;;1705641;82;21061;-54
2022/11/26 10:33:54;;;;;;;47.43;25.30;;;;;;;;;;1671727;83;21132;-55
2022/11/26 10:36:26;;;;;;;41.80;19.50;;;;;;;;;;1708659;82;21136;-56
2022/11/26 10:38:55;;;;;;;206.73;80.60;;;;;;;;;;1706854;82;21947;-56
2022/11/26 10:41:25;;;;;;;170.03;64.23;;;;;;;;;;1707687;82;21519;-56
2022/11/26 10:43:51;;;;;;;91.20;33.17;;;;;;;;;;1702880;82;21079;-56
2022/11/26 10:46:29;;;;;;;49.30;18.53;;;;;;;;;;1707359;82;21519;-55
2022/11/26 10:49:17;;;;;;;106.57;38.67;;;;;;;;;;1706677;82;21106;-56
2022/11/26 10:54:37;;;;;;;105.70;44.60;;;;;;;;;;1772921;78;22600;-56
2022/11/26 10:57:15;;;;;;;37.93;14.97;;;;;;;;;;1747604;80;21034;-54
2022/11/26 10:59:46;;;;;;;81.57;35.80;;;;;;;;;;1749956;80;21857;-56
2022/11/26 11:02:31;;;;;;;69.67;30.37;;;;;;;;;;1739112;80;21406;-54
2022/11/26 11:05:02;;;;;;;29.47;13.07;;;;;;;;;;1747850;80;21030;-55
2022/11/26 11:07:35;;;;;;;31.93;15.20;;;;;;;;;;1726955;80;21109;-56
2022/11/26 11:10:11;;;;;;;9.50;4.67;;;;;;;;;;1737710;80;21524;-57
2022/11/26 11:12:38;;;;;;;24.70;13.13;;;;;;;;;;1740817;80;21901;-56
2022/11/26 11:15:23;;;;;;;23.23;12.03;;;;;;;;;;1733437;80;21440;-55
2022/11/26 11:18:13;;;;;;;21.95;12.50;;;;;;;;;;1734647;80;21611;-56
2022/11/26 11:20:40;;;;;;;8.27;5.43;;;;;;;;;;1733775;80;21040;-56
2022/11/26 11:23:17;;;;;;;7.77;6.03;;;;;;;;;;1731877;80;21081;-55
2022/11/26 11:26:03;;;;;;;11.43;9.10;;;;;;;;;;1732424;80;22029;-55
2022/11/26 11:28:31;;;;;;;8.37;7.57;;;;;;;;;;1728366;80;21088;-56
2022/11/26 11:31:03;;;;;;;2.53;1.73;;;;;;;;;;1729722;80;21068;-55
2022/11/26 11:33:30;;;;;;;1.50;1.20;;;;;;;;;;1722154;80;21235;-56
2022/11/26 11:36:15;;;;;;;1.30;1.20;;;;;;;;;;1726189;80;21041;-56
2022/11/26 11:38:55;;;;;;;1.07;0.90;;;;;;;;;;1730667;80;21820;-55
2022/11/26 11:41:31;;;;;;;1.87;1.53;;;;;;;;;;1735577;80;21508;-56
2022/11/26 11:44:15;;;;;;;2.43;2.33;;;;;;;;;;1738520;80;21027;-56
2022/11/26 11:47:07;;;;;;;1.30;1.17;;;;;;;;;;1725351;80;21609;-55
2022/11/26 11:49:54;;;;;;;1.30;1.00;;;;;;;;;;1735508;80;21057;-56
2022/11/26 11:52:40;;;;;;;2.27;1.20;;;;;;;;;;1730165;80;22863;-57
2022/11/26 11:55:14;;;;;;;0.90;0.80;;;;;;;;;;1732039;80;21096;-56
2022/11/26 11:57:46;;;;;;;0.90;0.70;;;;;;;;;;1726834;80;21041;-56
2022/11/26 12:00:16;;;;;;;0.90;0.70;;;;;;;;;;1733889;80;21521;-57
2022/11/26 12:03:05;;;;;;;1.50;0.80;;;;;;;;;;1730889;80;20993;-56
2022/11/26 12:05:38;;;;;;;1.20;0.70;;;;;;;;;;1725954;80;21838;-55
2022/11/26 12:08:36;;;;;;;1.50;0.80;;;;;;;;;;1731280;80;21049;-56
2022/11/26 12:11:18;;;;;;;1.13;0.80;;;;;;;;;;1732333;80;21066;-57
2022/11/26 12:13:50;;;;;;;1.17;0.80;;;;;;;;;;1737543;80;21505;-57
2022/11/26 12:16:16;;;;;;;1.33;0.80;;;;;;;;;;1737395;80;21065;-55
2022/11/26 12:18:52;;;;;;;1.87;1.03;;;;;;;;;;1733645;80;21936;-55
2022/11/26 12:21:22;;;;;;;1.50;0.80;;;;;;;;;;1695114;82;21505;-56
2022/11/26 12:24:17;;;;;;;0.90;0.90;;;;;;;;;;1677771;82;21106;-56
2022/11/26 12:26:52;;;;;;;1.15;0.80;;;;;;;;;;1684962;82;21148;-55
2022/11/26 12:29:33;;;;;;;1.03;0.80;;;;;;;;;;1663045;82;21275;-56
2022/11/26 12:32:15;;;;;;;1.27;0.87;;;;;;;;;;1688680;82;21804;-55
2022/11/26 12:34:44;;;;;;;0.77;0.70;;;;;;;;;;1687742;82;21495;-57
2022/11/26 12:37:17;;;;;;;1.83;0.80;;;;;;;;;;1656755;84;21368;-56
2022/11/26 12:39:47;;;;;;;1.57;0.90;;;;;;;;;;1685297;82;21092;-55
2022/11/26 12:42:20;;;;;;;1.23;0.70;;;;;;;;;;1683801;82;21373;-55
2022/11/26 12:44:50;;;;;;;1.53;1.00;;;;;;;;;;1683299;82;22550;-56
2022/11/26 12:47:25;;;;;;;0.90;0.80;;;;;;;;;;1688621;82;21096;-55
2022/11/26 12:49:55;;;;;;;0.90;0.70;;;;;;;;;;1686987;82;21623;-56
2022/11/26 12:52:51;;;;;;;1.63;1.00;;;;;;;;;;1686481;82;21155;-57
2022/11/26 12:55:24;;;;;;;1.17;0.70;;;;;;;;;;1667043;84;21058;-55
2022/11/26 12:57:56;;;;;;;1.60;0.70;;;;;;;;;;1718793;81;21871;-56
2022/11/26 13:00:25;;;;;;;1.37;0.67;;;;;;;;;;1714707;81;21073;-55
2022/11/26 13:02:51;;;;;;;0.93;0.70;;;;;;;;;;1716837;81;21022;-56
2022/11/26 13:05:33;;;;;;;0.97;0.70;;;;;;;;;;1716154;81;21085;-55
2022/11/26 13:08:30;;;;;;;0.80;0.70;;;;;;;;;;1717352;81;21049;-55
2022/11/26 13:11:01;;;;;;;0.90;0.80;;;;;;;;;;1718513;81;21489;-57
2022/11/26 13:13:47;;;;;;;1.00;0.80;;;;;;;;;;1719598;81;21063;-55
2022/11/26 13:16:22;;;;;;;1.22;0.80;;;;;;;;;;1718185;81;21559;-55
2022/11/26 13:18:58;;;;;;;1.27;0.80;;;;;;;;;;1712141;81;21589;-56
2022/11/26 13:21:46;;;;;;;1.67;0.80;;;;;;;;;;1717863;81;21511;-55
2022/11/26 13:24:22;;;;;;;1.60;0.87;;;;;;;;;;1718348;81;23179;-56
2022/11/26 13:26:58;;;;;;;1.20;1.10;;;;;;;;;;1715228;81;21842;-55
2022/11/26 13:29:51;;;;;;;1.30;0.80;;;;;;;;;;1716820;81;21022;-55
2022/11/26 13:32:53;;;;;;;1.97;1.00;;;;;;;;;;1716547;81;21199;-57
2022/11/26 13:35:23;;;;;;;1.67;0.90;;;;;;;;;;1697491;82;21065;-57
2022/11/26 13:38:10;;;;;;;1.20;0.90;;;;;;;;;;1704957;81;21844;-56
2022/11/26 13:41:00;;;;;;;1.17;0.80;;;;;;;;;;1718706;81;21591;-55
2022/11/26 13:43:30;;;;;;;2.13;0.70;;;;;;;;;;1718139;81;21115;-54
2022/11/26 13:46:32;;;;;;;0.93;0.80;;;;;;;;;;1725234;81;21622;-57
2022/11/26 13:49:09;;;;;;;1.00;0.90;;;;;;;;;;1718605;81;21094;-56
2022/11/26 13:51:57;;;;;;;2.10;0.90;;;;;;;;;;1699508;82;21808;-55
2022/11/26 13:54:29;;;;;;;1.20;0.90;;;;;;;;;;1723296;80;21049;-55
2022/11/26 13:56:58;;;;;;;0.97;0.80;;;;;;;;;;1732296;80;21090;-56
2022/11/26 13:59:25;;;;;;;1.40;0.90;;;;;;;;;;1736144;80;21063;-56
2022/11/26 14:01:51;;;;;;;2.40;0.90;;;;;;;;;;1732129;80;21045;-56
2022/11/26 14:04:25;;;;;;;1.73;0.80;;;;;;;;;;1732994;80;21143;-56
2022/11/26 14:07:04;;;;;;;1.93;1.03;;;;;;;;;;1731033;80;21421;-55
2022/11/26 14:09:47;;;;;;;1.47;1.20;;;;;;;;;;1729194;80;21042;-56
2022/11/26 14:12:15;;;;;;;1.47;1.20;;;;;;;;;;1733833;80;21112;-57
2022/11/26 14:14:42;;;;;;;1.77;1.23;;;;;;;;;;1735513;80;21578;-58
2022/11/26 14:17:10;;;;;;;2.50;1.03;;;;;;;;;;1735592;80;21977;-56
2022/11/26 14:19:43;;;;;;;2.37;1.20;;;;;;;;;;1726386;80;21527;-56
2022/11/26 14:22:22;;;;;;;1.30;1.20;;;;;;;;;;1733443;80;21118;-57
2022/11/26 14:24:58;;;;;;;1.20;1.10;;;;;;;;;;1730123;80;21494;-58
2022/11/26 14:27:33;;;;;;;1.40;1.00;;;;;;;;;;1730646;80;21304;-56
2022/11/26 14:30:09;;;;;;;1.32;1.20;;;;;;;;;;1730248;80;22636;-55
2022/11/26 14:32:54;;;;;;;1.17;1.00;;;;;;;;;;1735000;80;21181;-56
2022/11/26 14:35:26;;;;;;;1.55;1.15;;;;;;;;;;1730661;80;21564;-56
2022/11/26 14:37:53;;;;;;;1.30;1.20;;;;;;;;;;1731962;80;21023;-55
2022/11/26 14:40:28;;;;;;;1.90;1.30;;;;;;;;;;1730313;80;21546;-56
2022/11/26 14:43:09;;;;;;;1.50;1.27;;;;;;;;;;1733297;80;21835;-57
2022/11/26 14:45:35;;;;;;;1.60;1.33;;;;;;;;;;1732673;80;21516;-58
2022/11/26 14:48:01;;;;;;;1.60;1.50;;;;;;;;;;1734832;80;21070;-55
2022/11/26 14:50:28;;;;;;;2.17;1.50;;;;;;;;;;1731287;80;21170;-56
2022/11/26 14:52:58;;;;;;;2.37;1.30;;;;;;;;;;1731632;80;21511;-57
2022/11/26 14:55:27;;;;;;;1.50;1.00;;;;;;;;;;1730095;80;21939;-57
2022/11/26 14:57:59;;;;;;;1.90;1.47;;;;;;;;;;1720844;80;21085;-58
2022/11/26 15:00:28;;;;;;;1.87;1.55;;;;;;;;;;1723933;80;21053;-55
2022/11/26 15:02:55;;;;;;;1.83;1.60;;;;;;;;;;1718396;80;21062;-58
2022/11/26 15:05:26;;;;;;;1.77;1.40;;;;;;;;;;1722360;80;21063;-57